Aviation Digital Data Service (ADDS)

Output produced by METARs form (1253 UTC 30 May 2017)
found at http://aviationweather.gov/adds/metars/
 
METAR text: KSPB 301153Z AUTO 36005KT 10SM OVC024 13/10 A2996 RMK AO2 SLP146 T01280100 10133 20128 55000
Conditions at: KSPB (SCAPPOOSE , OR, US) observed 1153 UTC 30 May 2017
Temperature: 12.8°C (55°F)
Dewpoint: 10.0°C (50°F) [RH = 83%]
Pressure (altimeter): 29.96 inches Hg (1014.6 mb)
[Sea-level pressure: 1014.6 mb]
Winds: from the N (360 degrees) at 6 MPH (5 knots; 2.6 m/s)
Visibility: 10 or more miles (16+ km)
Ceiling: 2400 feet AGL
Clouds: overcast cloud deck at 2400 feet AGL
Weather: automated observation with no human augmentation;
there may or may not be significant weather present at this time

METAR text: KSPB 301120Z AUTO 34007KT 10SM BKN025 OVC031 13/10 A2995 RMK AO2 T01330100
Conditions at: KSPB (SCAPPOOSE , OR, US) observed 1120 UTC 30 May 2017
Temperature: 13.3°C (56°F)
Dewpoint: 10.0°C (50°F) [RH = 80%]
Pressure (altimeter): 29.95 inches Hg (1014.3 mb)
Winds: from the NNW (340 degrees) at 8 MPH (7 knots; 3.6 m/s)
Visibility: 10 or more miles (16+ km)
Ceiling: 2500 feet AGL
Clouds: broken clouds at 2500 feet AGL
overcast cloud deck at 3100 feet AGL
Weather: automated observation with no human augmentation;
there may or may not be significant weather present at this time